首页
METAR-TAF:

METAR-TAF

机场 :

Cox Field

巴黎, 得克萨斯州, 美国

纬度: 33-38N, 经度: 095-27W, 海拔: 167米

当前天气观测

该预报发布于2小时和38分钟前的02:56 UTC
风速5节,风向西转西南
温度 11°C
湿度 71%
气压 1008 hPa
能見度: 16.1公里
天空无云

METAR: KPRX 260256Z AUTO 25005KT 10SM CLR 11/06 A2977 RMK AO2 SLP097 T01060061 53023

时间: 23:34 (05:34 UTC)


TAF: 丢失

超过4000个机场的气象观测和天气预报(METAR&TAF报告)。

可查询的气象台以黄色和红色小点在地图上表示。

将鼠标移到小点上方,可查看气象台名称。

然后点击查看天气观测和预报。

如需切换地图:点击带黑十字的绿色按钮放大地图;点击带横线的绿色按钮缩小地图;或者点击绿色箭头查看邻近地区的地图。


METAR-TAF: